createdAt,value
2022-10-31T00:00:48.305Z,17.08
2022-10-31T00:03:16.615Z,18.02
2022-10-31T00:05:46.007Z,19.65
2022-10-31T00:08:13.764Z,21.17
2022-10-31T00:10:43.820Z,17.88
2022-10-31T00:13:12.565Z,16.63
2022-10-31T00:15:41.770Z,22.15
2022-10-31T00:18:11.281Z,21.20
2022-10-31T00:20:39.444Z,27.45
2022-10-31T00:23:08.357Z,28.52
2022-10-31T00:25:37.630Z,23.80
2022-10-31T00:28:07.966Z,34.63
2022-10-31T00:30:36.006Z,24.50
2022-10-31T00:33:06.105Z,29.30
2022-10-31T00:35:34.225Z,27.65
2022-10-31T00:38:02.333Z,30.02
2022-10-31T00:40:30.069Z,28.27
2022-10-31T00:42:58.344Z,29.20
2022-10-31T00:45:27.645Z,30.60
2022-10-31T00:47:55.403Z,32.40
2022-10-31T00:50:23.257Z,32.08
2022-10-31T00:52:51.043Z,27.30
2022-10-31T00:55:18.800Z,30.58
2022-10-31T00:57:48.497Z,30.25
2022-10-31T01:00:17.255Z,34.17
2022-10-31T01:02:46.774Z,26.65
2022-10-31T01:05:14.928Z,34.17
2022-10-31T01:07:43.849Z,30.73
2022-10-31T01:10:12.264Z,32.95
2022-10-31T01:12:40.482Z,36.97
2022-10-31T01:15:09.670Z,38.72
2022-10-31T01:17:37.460Z,41.05
2022-10-31T01:20:08.698Z,35.38
2022-10-31T01:22:36.754Z,40.50
2022-10-31T01:25:05.536Z,35.22
2022-10-31T01:27:33.403Z,35.28
2022-10-31T01:30:01.205Z,29.88
2022-10-31T01:32:29.757Z,35.78
2022-10-31T01:34:57.528Z,30.23
2022-10-31T01:37:26.715Z,30.10
2022-10-31T01:39:55.542Z,25.13
2022-10-31T01:42:24.663Z,26.30
2022-10-31T01:44:58.902Z,26.20
2022-10-31T01:47:45.126Z,29.50
2022-10-31T01:50:25.006Z,30.20
2022-10-31T01:52:54.841Z,29.67
2022-10-31T01:55:30.337Z,33.08
2022-10-31T01:58:03.994Z,40.40
2022-10-31T02:00:32.399Z,36.53
2022-10-31T02:03:01.218Z,32.50
2022-10-31T02:05:32.279Z,43.17
2022-10-31T02:08:07.362Z,38.33
2022-10-31T02:10:37.535Z,36.67
2022-10-31T02:13:07.069Z,31.13
2022-10-31T02:15:39.544Z,26.15
2022-10-31T02:18:08.405Z,27.02
2022-10-31T02:20:46.674Z,28.45
2022-10-31T02:23:42.998Z,25.20
2022-10-31T02:26:41.505Z,22.10
2022-10-31T02:29:40.253Z,26.05
2022-10-31T02:32:15.554Z,27.00
2022-10-31T02:34:53.247Z,40.15
2022-10-31T02:37:27.720Z,30.75
2022-10-31T02:40:01.122Z,27.67
2022-10-31T02:42:52.160Z,37.53
2022-10-31T02:45:26.214Z,34.63
2022-10-31T02:47:59.807Z,36.47
2022-10-31T02:50:31.757Z,37.60
2022-10-31T02:52:59.512Z,35.03
2022-10-31T02:55:52.078Z,42.30
2022-10-31T02:58:24.308Z,41.40
2022-10-31T03:01:20.465Z,43.92
2022-10-31T03:04:04.579Z,37.67
2022-10-31T03:06:37.023Z,34.58
2022-10-31T03:09:14.801Z,40.25
2022-10-31T03:11:54.928Z,40.10
2022-10-31T03:14:28.765Z,45.92
2022-10-31T03:17:03.576Z,41.92
2022-10-31T03:19:39.129Z,37.47
2022-10-31T03:22:12.234Z,45.08
2022-10-31T03:24:41.667Z,44.80
2022-10-31T03:27:14.709Z,47.92
2022-10-31T03:29:45.529Z,51.72
2022-10-31T03:32:17.187Z,44.13
2022-10-31T03:34:49.651Z,43.00
2022-10-31T03:37:21.281Z,48.70
2022-10-31T03:39:51.337Z,42.85
2022-10-31T03:42:26.318Z,50.38
2022-10-31T03:44:58.514Z,50.92
2022-10-31T03:47:26.457Z,48.50
2022-10-31T03:49:56.020Z,48.33
2022-10-31T03:52:29.233Z,49.80
2022-10-31T03:55:01.613Z,51.53
2022-10-31T03:57:39.781Z,50.13
2022-10-31T04:00:11.433Z,52.58
2022-10-31T04:02:53.040Z,49.00
2022-10-31T04:05:23.385Z,48.90
2022-10-31T04:07:56.470Z,55.47
2022-10-31T04:10:31.909Z,53.75
2022-10-31T04:13:05.576Z,58.05
2022-10-31T04:15:43.080Z,51.65
2022-10-31T04:18:11.063Z,62.80
2022-10-31T04:20:43.585Z,60.90
2022-10-31T04:23:26.544Z,57.72
2022-10-31T04:25:55.100Z,59.33
2022-10-31T04:28:23.270Z,53.67
2022-10-31T04:30:51.207Z,60.05
2022-10-31T04:33:18.993Z,60.05
2022-10-31T04:35:49.728Z,65.75
2022-10-31T04:38:17.802Z,63.42
2022-10-31T04:40:47.169Z,62.78
2022-10-31T04:43:33.424Z,68.13
2022-10-31T04:46:02.260Z,71.13
2022-10-31T04:48:30.694Z,70.18
2022-10-31T04:51:02.982Z,71.63
2022-10-31T04:53:31.012Z,85.57
2022-10-31T04:56:18.767Z,71.03
2022-10-31T04:58:48.941Z,67.65
2022-10-31T05:01:16.924Z,74.28
2022-10-31T05:03:46.427Z,88.82
2022-10-31T05:06:17.381Z,72.85
2022-10-31T05:08:45.130Z,74.97
2022-10-31T05:11:14.039Z,106.97
2022-10-31T05:13:41.856Z,78.10
2022-10-31T05:16:15.278Z,108.05
2022-10-31T05:19:18.091Z,97.93
2022-10-31T05:22:22.368Z,323.60
2022-10-31T05:24:50.224Z,235.95
2022-10-31T05:27:18.042Z,129.68
2022-10-31T05:29:45.809Z,140.50
2022-10-31T05:32:13.555Z,83.32
2022-10-31T05:35:12.253Z,303.15
2022-10-31T05:38:04.236Z,79.88
2022-10-31T05:40:32.530Z,193.55
2022-10-31T05:43:00.822Z,80.82
2022-10-31T05:45:29.567Z,120.53
2022-10-31T05:48:03.367Z,107.93
2022-10-31T05:50:51.868Z,78.80
2022-10-31T05:53:20.995Z,80.10
2022-10-31T05:55:48.928Z,78.63
2022-10-31T05:58:20.803Z,75.32
2022-10-31T06:01:00.602Z,79.15
2022-10-31T06:03:28.382Z,92.07
2022-10-31T06:06:01.300Z,77.47
2022-10-31T06:08:35.773Z,72.90
2022-10-31T06:11:06.972Z,79.90
2022-10-31T06:14:07.947Z,71.10
2022-10-31T06:16:50.847Z,64.82
2022-10-31T06:19:38.721Z,63.78
2022-10-31T06:22:06.844Z,64.20
2022-10-31T06:24:36.091Z,60.72
2022-10-31T06:27:22.730Z,60.03
2022-10-31T06:29:50.562Z,66.43
2022-10-31T06:32:29.504Z,48.55
2022-10-31T06:34:57.275Z,54.53
2022-10-31T06:37:25.619Z,52.50
2022-10-31T06:39:57.593Z,54.97
2022-10-31T06:42:25.359Z,57.38
2022-10-31T06:44:53.248Z,49.53
2022-10-31T06:48:15.402Z,52.10
2022-10-31T06:50:58.592Z,50.85
2022-10-31T06:53:27.523Z,54.38
2022-10-31T06:55:59.477Z,51.00
2022-10-31T06:58:27.732Z,57.88
2022-10-31T07:01:02.192Z,52.72
2022-10-31T07:03:30.024Z,61.22
2022-10-31T07:05:58.826Z,53.70
2022-10-31T07:08:26.962Z,56.83
2022-10-31T07:10:57.116Z,52.47
2022-10-31T07:13:27.361Z,57.38
2022-10-31T07:16:11.451Z,49.75
2022-10-31T07:18:39.278Z,46.15
2022-10-31T07:21:07.890Z,56.42
2022-10-31T07:23:35.703Z,55.97
2022-10-31T07:26:26.996Z,45.72
2022-10-31T07:28:56.191Z,55.35
2022-10-31T07:31:26.395Z,53.88
2022-10-31T07:33:56.941Z,43.42
2022-10-31T07:36:27.649Z,41.25
2022-10-31T07:39:00.433Z,45.65
2022-10-31T07:41:28.227Z,42.55
2022-10-31T07:43:57.700Z,50.88
2022-10-31T07:46:31.187Z,51.03
2022-10-31T07:49:17.300Z,43.88
2022-10-31T07:52:04.061Z,41.08
2022-10-31T07:54:54.937Z,39.78
2022-10-31T07:57:25.314Z,39.58
2022-10-31T07:59:55.031Z,41.35
2022-10-31T08:02:24.451Z,36.75
2022-10-31T08:05:10.877Z,34.67
2022-10-31T08:08:14.696Z,38.00
2022-10-31T08:10:42.996Z,40.50
2022-10-31T08:13:13.315Z,35.10
2022-10-31T08:15:50.840Z,37.88
2022-10-31T08:18:19.391Z,36.35
2022-10-31T08:20:47.349Z,37.25
2022-10-31T08:23:15.373Z,34.90
2022-10-31T08:25:44.180Z,36.20
2022-10-31T08:28:13.636Z,31.85
2022-10-31T08:30:46.793Z,30.48
2022-10-31T08:33:33.357Z,31.00
2022-10-31T08:36:30.585Z,29.10
2022-10-31T08:39:11.591Z,28.70
2022-10-31T08:41:40.592Z,33.78
2022-10-31T08:44:12.557Z,32.05
2022-10-31T08:46:41.741Z,27.63
2022-10-31T08:49:09.567Z,29.40
2022-10-31T08:51:37.343Z,26.48
2022-10-31T08:54:05.265Z,29.67
2022-10-31T08:57:08.660Z,27.58
2022-10-31T08:59:45.449Z,28.42
2022-10-31T09:02:47.752Z,24.63
2022-10-31T09:05:15.795Z,20.35
2022-10-31T09:07:43.645Z,27.85
2022-10-31T09:10:11.524Z,28.20
2022-10-31T09:12:39.971Z,28.55
2022-10-31T09:15:45.813Z,32.53
2022-10-31T09:18:24.934Z,32.47
2022-10-31T09:21:02.621Z,32.35
2022-10-31T09:23:32.856Z,30.77
2022-10-31T09:26:02.529Z,33.85
2022-10-31T09:28:36.860Z,39.45
2022-10-31T09:31:10.788Z,31.92
2022-10-31T09:34:09.113Z,32.53
2022-10-31T09:36:36.942Z,30.02
2022-10-31T09:39:06.384Z,39.53
2022-10-31T09:41:56.265Z,32.10
2022-10-31T09:44:32.953Z,42.13
2022-10-31T09:47:07.491Z,38.28
2022-10-31T09:49:50.894Z,58.20
2022-10-31T09:52:25.136Z,34.42
2022-10-31T09:54:56.869Z,38.78
2022-10-31T09:57:30.641Z,25.77
2022-10-31T09:59:59.616Z,34.08
2022-10-31T10:02:34.801Z,27.55
2022-10-31T10:05:06.576Z,31.27
2022-10-31T10:07:47.349Z,25.27
2022-10-31T10:10:33.344Z,24.52
2022-10-31T10:13:44.926Z,22.40
2022-10-31T10:16:34.149Z,17.55
2022-10-31T10:19:15.475Z,20.65
2022-10-31T10:21:52.680Z,18.80
2022-10-31T10:24:29.721Z,22.35
2022-10-31T10:27:07.592Z,27.02
2022-10-31T10:29:43.972Z,35.63
2022-10-31T10:32:19.632Z,29.25
2022-10-31T10:34:52.553Z,26.33
2022-10-31T10:37:30.248Z,29.42
2022-10-31T10:40:02.758Z,22.48
2022-10-31T10:42:48.172Z,23.88
2022-10-31T10:45:36.377Z,21.63
2022-10-31T10:48:12.368Z,17.40
2022-10-31T10:50:46.606Z,20.60
2022-10-31T10:53:33.541Z,15.63
2022-10-31T10:56:10.878Z,20.55
2022-10-31T10:58:40.776Z,13.65
2022-10-31T11:03:41.823Z,19.90
2022-10-31T11:06:21.738Z,18.13
2022-10-31T11:08:51.353Z,19.85
2022-10-31T11:11:28.575Z,21.77
2022-10-31T11:14:02.390Z,25.23
2022-10-31T11:16:39.567Z,23.52
2022-10-31T11:19:19.617Z,31.92
2022-10-31T11:21:53.725Z,20.70
2022-10-31T11:24:27.032Z,23.27
2022-10-31T11:27:13.435Z,25.33
2022-10-31T11:29:41.268Z,31.63
2022-10-31T11:32:20.757Z,26.15
2022-10-31T11:34:52.082Z,34.55
2022-10-31T11:37:23.580Z,40.92
2022-10-31T11:39:55.256Z,24.10
2022-10-31T11:42:25.263Z,21.10
2022-10-31T11:44:55.143Z,22.88
2022-10-31T11:47:28.356Z,23.63
2022-10-31T11:49:57.541Z,20.90
2022-10-31T11:52:27.759Z,21.13
2022-10-31T11:54:59.402Z,29.67
2022-10-31T11:57:29.848Z,23.60
2022-10-31T12:00:00.094Z,28.88
2022-10-31T12:02:28.238Z,21.92
2022-10-31T12:05:04.918Z,20.60
2022-10-31T12:07:33.107Z,20.30
2022-10-31T12:10:02.227Z,20.55
2022-10-31T12:13:02.654Z,17.63
2022-10-31T12:15:35.524Z,19.33
2022-10-31T12:18:24.853Z,18.50
2022-10-31T12:21:06.943Z,19.73
2022-10-31T12:23:46.819Z,20.30
2022-10-31T12:26:21.264Z,13.68
2022-10-31T12:29:17.724Z,15.15
2022-10-31T12:31:57.733Z,21.08
2022-10-31T12:34:49.191Z,12.82
2022-10-31T12:37:33.155Z,17.83
2022-10-31T12:40:17.897Z,22.25
2022-10-31T12:42:59.384Z,17.13
2022-10-31T12:45:41.280Z,15.55
2022-10-31T12:48:23.372Z,16.02
2022-10-31T12:50:59.258Z,15.25
2022-10-31T12:53:44.334Z,13.05
2022-10-31T12:56:24.112Z,17.30
2022-10-31T12:58:56.589Z,12.38
2022-10-31T13:01:30.474Z,14.23
2022-10-31T13:04:03.917Z,11.85
2022-10-31T13:06:34.859Z,13.40
2022-10-31T13:09:04.802Z,13.52
2022-10-31T13:11:37.424Z,15.65
2022-10-31T13:14:09.961Z,18.15
2022-10-31T13:16:41.074Z,17.73
2022-10-31T13:19:18.079Z,12.05
2022-10-31T13:21:55.852Z,12.13
2022-10-31T13:24:32.270Z,10.48
2022-10-31T13:27:03.125Z,12.38
2022-10-31T13:29:35.384Z,11.05
2022-10-31T13:32:07.302Z,13.48
2022-10-31T13:34:39.893Z,18.52
2022-10-31T13:37:17.623Z,11.98
2022-10-31T13:39:57.743Z,12.38
2022-10-31T13:42:33.477Z,15.73
2022-10-31T13:45:14.339Z,13.82
2022-10-31T13:47:43.639Z,17.00
2022-10-31T13:50:23.128Z,10.82
2022-10-31T13:52:51.002Z,12.18
2022-10-31T13:55:37.971Z,12.93
2022-10-31T13:58:06.620Z,13.20
2022-10-31T14:00:37.361Z,11.95
2022-10-31T14:03:05.509Z,10.45
2022-10-31T14:05:35.265Z,8.88
2022-10-31T14:08:06.398Z,14.23
2022-10-31T14:10:37.188Z,12.52
2022-10-31T14:13:08.043Z,10.65
2022-10-31T14:15:39.996Z,11.25
2022-10-31T14:18:18.944Z,9.85
2022-10-31T14:20:46.879Z,12.30
2022-10-31T14:23:41.083Z,11.40
2022-10-31T14:26:20.051Z,12.20
2022-10-31T14:28:48.989Z,13.43
2022-10-31T14:31:37.280Z,14.93
2022-10-31T14:34:21.189Z,13.77
2022-10-31T14:37:11.493Z,13.30
2022-10-31T14:39:47.048Z,12.10
2022-10-31T14:42:29.728Z,13.15
2022-10-31T14:45:15.455Z,11.68
2022-10-31T14:47:53.974Z,12.50
2022-10-31T14:50:38.214Z,13.10
2022-10-31T14:53:08.421Z,12.65
2022-10-31T14:55:37.115Z,14.13
2022-10-31T14:58:08.104Z,14.60
2022-10-31T15:00:37.877Z,15.85
2022-10-31T15:03:14.248Z,16.58
2022-10-31T15:05:50.183Z,12.45
2022-10-31T15:08:31.204Z,17.75
2022-10-31T15:10:59.098Z,14.20
2022-10-31T15:13:26.899Z,16.75
2022-10-31T15:15:57.233Z,21.10
2022-10-31T15:18:29.154Z,15.32
2022-10-31T15:20:58.528Z,14.10
2022-10-31T15:23:28.851Z,21.75
2022-10-31T15:26:03.716Z,14.00
2022-10-31T15:28:32.688Z,14.70
2022-10-31T15:31:01.951Z,14.48
2022-10-31T15:33:37.909Z,16.90
2022-10-31T15:36:08.078Z,14.93
2022-10-31T15:38:35.939Z,17.77
2022-10-31T15:41:07.861Z,17.40
2022-10-31T15:43:39.101Z,15.95
2022-10-31T15:46:10.968Z,15.63
2022-10-31T15:48:41.546Z,19.88
2022-10-31T15:51:09.447Z,17.60
2022-10-31T15:53:43.806Z,16.02
2022-10-31T15:56:15.017Z,17.95
2022-10-31T15:58:46.833Z,21.00
2022-10-31T16:01:23.784Z,19.60
2022-10-31T16:04:21.290Z,16.48
2022-10-31T16:07:01.306Z,15.90
2022-10-31T16:09:29.448Z,12.88
2022-10-31T16:11:59.897Z,14.88
2022-10-31T16:14:29.680Z,17.23
2022-10-31T16:16:59.683Z,16.65
2022-10-31T16:19:33.148Z,13.80
2022-10-31T16:22:07.583Z,17.42
2022-10-31T16:24:39.354Z,17.65
2022-10-31T16:27:09.215Z,12.43
2022-10-31T16:29:46.842Z,15.98
2022-10-31T16:32:30.937Z,14.25
2022-10-31T16:35:20.396Z,11.32
2022-10-31T16:37:48.192Z,13.38
2022-10-31T16:40:18.634Z,14.18
2022-10-31T16:42:49.769Z,13.18
2022-10-31T16:45:21.121Z,12.70
2022-10-31T16:47:50.275Z,11.60
2022-10-31T16:50:22.301Z,12.07
2022-10-31T16:55:45.698Z,16.73
2022-10-31T16:58:18.264Z,15.25
2022-10-31T17:00:46.495Z,12.27
2022-10-31T17:03:14.291Z,12.65
2022-10-31T17:05:43.662Z,12.32
2022-10-31T17:08:11.432Z,10.85
2022-10-31T17:10:40.004Z,8.55
2022-10-31T17:13:12.261Z,11.45
2022-10-31T17:15:47.942Z,14.80
2022-10-31T17:18:16.984Z,15.20
2022-10-31T17:20:46.601Z,18.83
2022-10-31T17:23:16.361Z,24.25
2022-10-31T17:25:44.944Z,30.27
2022-10-31T17:28:14.249Z,27.45
2022-10-31T17:30:42.886Z,30.27
2022-10-31T17:33:13.282Z,26.25
2022-10-31T17:35:41.036Z,25.00
2022-10-31T17:38:10.180Z,15.75
2022-10-31T17:40:39.151Z,13.95
2022-10-31T17:43:07.278Z,16.92
2022-10-31T17:45:35.039Z,17.75
2022-10-31T17:48:02.783Z,13.52
2022-10-31T17:50:30.524Z,19.10
2022-10-31T17:52:59.726Z,13.13
2022-10-31T17:55:31.573Z,13.07
2022-10-31T17:58:04.269Z,13.82
2022-10-31T18:00:32.082Z,14.13
2022-10-31T18:03:00.355Z,12.50
2022-10-31T18:05:28.350Z,10.43
2022-10-31T18:07:59.395Z,11.75
2022-10-31T18:10:30.026Z,11.73
2022-10-31T18:12:57.901Z,10.70
2022-10-31T18:15:26.159Z,12.93
2022-10-31T18:17:53.902Z,11.57
2022-10-31T18:20:21.680Z,11.95
2022-10-31T18:22:49.469Z,14.25
2022-10-31T18:25:17.353Z,9.88
2022-10-31T18:27:46.467Z,10.32
2022-10-31T18:30:14.364Z,15.95
2022-10-31T18:32:42.179Z,13.68
2022-10-31T18:35:10.032Z,14.02
2022-10-31T18:37:37.817Z,14.63
2022-10-31T18:40:06.715Z,14.95
2022-10-31T18:42:34.473Z,18.75
2022-10-31T18:45:11.512Z,16.23
2022-10-31T18:47:44.905Z,18.00
2022-10-31T18:50:12.663Z,18.80
2022-10-31T18:52:40.539Z,18.20
2022-10-31T18:55:09.220Z,16.45
2022-10-31T18:57:37.460Z,15.52
2022-10-31T19:00:07.897Z,17.67
2022-10-31T19:02:35.694Z,19.08
2022-10-31T19:05:03.598Z,18.50
2022-10-31T19:07:31.892Z,16.85
2022-10-31T19:09:59.662Z,14.25
2022-10-31T19:12:27.444Z,16.52
2022-10-31T19:14:55.297Z,17.05
2022-10-31T19:17:26.346Z,18.38
2022-10-31T19:19:54.085Z,18.17
2022-10-31T19:22:21.838Z,16.30
2022-10-31T19:24:49.680Z,13.75
2022-10-31T19:27:17.428Z,13.95
2022-10-31T19:29:45.178Z,14.60
2022-10-31T19:32:12.956Z,16.02
2022-10-31T19:34:42.025Z,18.40
2022-10-31T19:37:09.764Z,17.25
2022-10-31T19:39:42.807Z,19.33
2022-10-31T19:42:12.098Z,21.38
2022-10-31T19:44:39.852Z,20.98
2022-10-31T19:47:07.637Z,22.58
2022-10-31T19:49:35.424Z,25.13
2022-10-31T19:52:04.590Z,21.23
2022-10-31T19:54:32.428Z,28.77
2022-10-31T19:57:00.137Z,26.95
2022-10-31T19:59:27.983Z,24.27
2022-10-31T20:01:55.959Z,29.63
2022-10-31T20:04:23.880Z,28.20
2022-10-31T20:06:52.042Z,30.08
2022-10-31T20:09:21.252Z,31.52
2022-10-31T20:11:48.995Z,28.33
2022-10-31T20:14:18.417Z,27.08
2022-10-31T20:16:47.024Z,29.42
2022-10-31T20:19:14.997Z,25.02
2022-10-31T20:21:43.206Z,22.50
2022-10-31T20:24:12.160Z,23.67
2022-10-31T20:26:42.045Z,26.27
2022-10-31T20:29:15.662Z,24.42
2022-10-31T20:31:44.655Z,24.92
2022-10-31T20:34:12.485Z,20.67
2022-10-31T20:36:40.199Z,22.63
2022-10-31T20:39:07.978Z,24.10
2022-10-31T20:41:38.786Z,26.42
2022-10-31T20:44:08.157Z,27.02
2022-10-31T20:46:35.905Z,27.50
2022-10-31T20:49:03.683Z,24.05
2022-10-31T20:51:32.167Z,21.48
2022-10-31T20:54:01.095Z,20.50
2022-10-31T20:56:29.924Z,24.60
2022-10-31T20:58:58.691Z,25.02
2022-10-31T21:01:30.205Z,28.88
2022-10-31T21:03:59.150Z,28.15
2022-10-31T21:06:27.972Z,29.58
2022-10-31T21:08:55.827Z,29.63
2022-10-31T21:11:25.427Z,27.20
2022-10-31T21:13:54.144Z,29.83
2022-10-31T21:16:24.374Z,28.65
2022-10-31T21:18:54.766Z,27.42
2022-10-31T21:21:29.163Z,31.77
2022-10-31T21:24:01.660Z,31.45
2022-10-31T21:26:33.287Z,38.03
2022-10-31T21:29:01.785Z,36.22
2022-10-31T21:31:29.621Z,39.95
2022-10-31T21:33:59.163Z,44.50
2022-10-31T21:36:27.248Z,37.10
2022-10-31T21:38:56.392Z,34.25
2022-10-31T21:41:25.680Z,41.85
2022-10-31T21:43:55.154Z,44.25
2022-10-31T21:46:24.683Z,44.22
2022-10-31T21:48:52.773Z,42.00
2022-10-31T21:51:23.539Z,40.20
2022-10-31T21:54:09.631Z,46.33
2022-10-31T21:56:38.304Z,42.75
2022-10-31T21:59:06.382Z,49.30
2022-10-31T22:01:35.146Z,48.88
2022-10-31T22:04:03.247Z,45.72
2022-10-31T22:06:32.929Z,48.65
2022-10-31T22:09:02.562Z,43.00
2022-10-31T22:11:30.846Z,44.80
2022-10-31T22:14:00.685Z,43.13
2022-10-31T22:16:30.600Z,34.80
2022-10-31T22:18:59.968Z,38.10
2022-10-31T22:21:29.089Z,31.63
2022-10-31T22:24:02.056Z,37.95
2022-10-31T22:26:34.883Z,38.20
2022-10-31T22:29:05.109Z,39.30
2022-10-31T22:31:34.321Z,36.50
2022-10-31T22:34:02.296Z,40.33
2022-10-31T22:36:31.346Z,44.17
2022-10-31T22:39:00.977Z,37.25
2022-10-31T22:41:31.283Z,42.92
2022-10-31T22:43:59.524Z,41.80
2022-10-31T22:46:29.160Z,41.35
2022-10-31T22:48:58.703Z,48.05
2022-10-31T22:51:28.304Z,47.03
2022-10-31T22:53:57.001Z,48.45
2022-10-31T22:56:28.343Z,43.30
2022-10-31T22:58:56.785Z,49.00
2022-10-31T23:01:26.745Z,53.53
2022-10-31T23:03:54.601Z,56.17
2022-10-31T23:06:24.437Z,51.97
2022-10-31T23:08:52.982Z,51.10
2022-10-31T23:11:22.228Z,52.17
2022-10-31T23:14:10.509Z,52.92
2022-10-31T23:16:46.097Z,59.50
2022-10-31T23:19:16.432Z,56.85
2022-10-31T23:21:55.817Z,50.55
2022-10-31T23:24:29.822Z,52.08
2022-10-31T23:27:08.227Z,58.53
2022-10-31T23:29:43.226Z,53.88
2022-10-31T23:32:14.140Z,60.08
2022-10-31T23:34:42.066Z,62.88
2022-10-31T23:37:09.917Z,55.88
2022-10-31T23:39:37.890Z,69.20
2022-10-31T23:42:06.143Z,68.90
2022-10-31T23:44:33.886Z,70.00
2022-10-31T23:47:03.088Z,65.88
2022-10-31T23:49:30.850Z,68.60
2022-10-31T23:51:58.812Z,75.03
2022-10-31T23:54:28.121Z,74.93
2022-10-31T23:56:56.179Z,73.88
2022-10-31T23:59:23.925Z,118.35
